Time;durP1;ratioP1;P1;durP2;ratioP2;P2;SDS_P1;SDS_P2;PMS_P1;PMS_P2;Temp;Humidity;BMP_temperature;BMP_pressure;BME280_temperature;BME280_humidity;BME280_pressure;Samples;Min_cycle;Max_cycle;Signal;HPM_P1;HPM_P2
2023/07/26 00:00:54;;;;;;;0.00;0.00;;;;;;;15.74;100.00;101062.44;5054440;28;20108;-45
2023/07/26 00:03:19;;;;;;;0.00;0.00;;;;;;;15.73;100.00;101056.19;5053754;28;20053;-48
2023/07/26 00:05:45;;;;;;;0.00;0.00;;;;;;;15.68;100.00;101046.97;5053890;28;20027;-46
2023/07/26 00:08:10;;;;;;;0.00;0.00;;;;;;;15.66;100.00;101054.50;5054026;28;20028;-47
2023/07/26 00:10:35;;;;;;;0.00;0.00;;;;;;;15.61;100.00;101057.00;5053765;28;20021;-46
2023/07/26 00:13:01;;;;;;;0.00;0.00;;;;;;;15.58;100.00;101048.22;5053757;28;20520;-46
2023/07/26 00:15:26;;;;;;;0.00;0.00;;;;;;;15.58;100.00;101052.81;5053946;28;20105;-46
2023/07/26 00:17:52;;;;;;;0.00;0.00;;;;;;;15.56;100.00;101042.19;5053399;28;20029;-44
2023/07/26 00:20:17;;;;;;;0.73;0.00;;;;;;;15.54;100.00;101052.41;5053704;28;20054;-46
2023/07/26 00:22:42;;;;;;;0.00;0.00;;;;;;;15.49;100.00;101049.50;5053450;28;20029;-46
2023/07/26 00:25:08;;;;;;;0.00;0.00;;;;;;;15.45;100.00;101052.84;5053268;28;20049;-44
2023/07/26 00:27:36;;;;;;;0.00;0.00;;;;;;;15.41;100.00;101041.56;5053427;28;20029;-45
2023/07/26 00:30:01;;;;;;;;;;;;;;;15.43;100.00;101044.91;5052463;28;20120;-46
2023/07/26 00:32:27;;;;;;;0.00;0.00;;;;;;;15.41;100.00;101044.28;5052468;28;19951;-44
2023/07/26 00:34:52;;;;;;;0.00;0.00;;;;;;;15.38;100.00;101036.56;5053571;28;20040;-44
2023/07/26 00:37:17;;;;;;;0.00;0.00;;;;;;;15.37;100.00;101041.13;5053396;28;20017;-46
2023/07/26 00:39:43;;;;;;;0.00;0.00;;;;;;;15.38;100.00;101042.00;5053463;28;20409;-47
2023/07/26 00:42:08;;;;;;;0.00;0.00;;;;;;;15.37;100.00;101037.59;5053513;28;20094;-47
2023/07/26 00:44:34;;;;;;;0.00;0.00;;;;;;;15.36;100.00;101035.94;5053019;28;20021;-46
2023/07/26 00:46:59;;;;;;;0.00;0.00;;;;;;;15.33;100.00;101039.06;5053022;28;20116;-45
2023/07/26 00:49:25;;;;;;;0.00;0.00;;;;;;;15.26;100.00;101040.94;5052871;28;20430;-47
2023/07/26 00:51:50;;;;;;;0.00;0.00;;;;;;;15.23;100.00;101039.47;5051595;28;20029;-48
2023/07/26 00:54:19;;;;;;;0.00;0.00;;;;;;;15.20;100.00;101039.91;5052890;28;20078;-46
2023/07/26 00:56:45;;;;;;;0.00;0.00;;;;;;;15.17;100.00;101034.06;5052717;28;20474;-46
2023/07/26 00:59:12;;;;;;;0.00;0.00;;;;;;;15.11;100.00;101033.00;5052939;28;20103;-46
2023/07/26 01:01:39;;;;;;;0.00;0.00;;;;;;;15.03;100.00;101036.75;5051442;28;20024;-49
2023/07/26 01:04:05;;;;;;;0.00;0.00;;;;;;;14.96;100.00;101041.34;5053220;28;20025;-49
2023/07/26 01:06:51;;;;;;;0.00;0.00;;;;;;;14.87;100.00;101034.44;5052658;28;20079;-46
2023/07/26 01:09:46;;;;;;;0.00;0.00;;;;;;;14.83;100.00;101036.72;5051064;28;20471;-48
2023/07/26 01:12:24;;;;;;;0.00;0.00;;;;;;;14.75;100.00;101036.09;5052099;28;20128;-49
2023/07/26 01:14:57;;;;;;;0.00;0.00;;;;;;;14.69;100.00;101043.13;5052269;28;20029;-50
2023/07/26 01:17:23;;;;;;;0.00;0.00;;;;;;;14.63;100.00;101044.78;5052602;28;20020;-48
2023/07/26 01:19:48;;;;;;;0.00;0.00;;;;;;;14.56;100.00;101038.53;5052270;28;20037;-50
2023/07/26 01:22:14;;;;;;;0.00;0.00;;;;;;;14.49;100.00;101037.63;5052291;28;20523;-49
2023/07/26 01:24:39;;;;;;;0.00;0.00;;;;;;;14.46;100.00;101029.94;5052211;28;20094;-46
2023/07/26 01:27:05;;;;;;;0.00;0.00;;;;;;;14.42;100.00;101034.06;5052415;28;20097;-45
2023/07/26 01:29:30;;;;;;;0.00;0.00;;;;;;;14.40;100.00;101033.41;5052522;28;20025;-45
2023/07/26 01:31:55;;;;;;;0.00;0.00;;;;;;;14.32;100.00;101034.44;5052308;28;20045;-44
2023/07/26 01:34:21;;;;;;;0.00;0.00;;;;;;;14.24;100.00;101024.63;5052263;28;20127;-48
2023/07/26 01:36:48;;;;;;;0.00;0.00;;;;;;;14.18;100.00;101035.41;5050857;28;20505;-47
2023/07/26 01:39:13;;;;;;;0.00;0.00;;;;;;;14.15;100.00;101031.25;5050711;28;20063;-45
2023/07/26 01:41:40;;;;;;;0.00;0.00;;;;;;;14.13;100.00;101033.31;5052214;28;20363;-45
2023/07/26 01:44:05;;;;;;;0.00;0.00;;;;;;;14.08;100.00;101030.38;5034281;28;20136;-47
2023/07/26 01:46:30;;;;;;;0.00;0.00;;;;;;;14.05;100.00;101036.19;5051997;28;20020;-48
2023/07/26 01:48:56;;;;;;;0.00;0.00;;;;;;;14.02;100.00;101031.19;5051588;28;20058;-43
2023/07/26 01:51:21;;;;;;;0.00;0.00;;;;;;;13.97;100.00;101022.81;5051768;28;20036;-44
2023/07/26 01:53:46;;;;;;;0.00;0.00;;;;;;;13.95;100.00;101025.72;5051698;28;20037;-47
2023/07/26 01:56:12;;;;;;;0.00;0.00;;;;;;;13.92;100.00;101028.00;5050340;28;20029;-45
2023/07/26 01:58:37;;;;;;;0.00;0.00;;;;;;;13.88;100.00;101037.56;5051370;28;20141;-49
2023/07/26 02:01:03;;;;;;;0.00;0.00;;;;;;;13.83;100.00;101033.56;5050252;28;20033;-48
2023/07/26 02:03:29;;;;;;;0.00;0.00;;;;;;;13.79;100.00;101026.03;5051584;28;20033;-46
2023/07/26 02:05:54;;;;;;;0.00;0.00;;;;;;;13.74;100.00;101026.63;5051371;28;20025;-46
2023/07/26 02:08:19;;;;;;;0.00;0.00;;;;;;;13.73;100.00;101030.38;5051668;28;20051;-44
2023/07/26 02:10:45;;;;;;;0.00;0.00;;;;;;;13.70;100.00;101041.59;5053621;28;20475;-45
2023/07/26 02:13:10;;;;;;;0.00;0.00;;;;;;;13.68;100.00;101040.94;5051501;28;20029;-48
2023/07/26 02:15:36;;;;;;;0.00;0.00;;;;;;;13.63;100.00;101040.72;5051256;28;20506;-46
2023/07/26 02:18:01;;;;;;;0.00;0.00;;;;;;;13.63;100.00;101038.00;5051447;28;20033;-43
2023/07/26 02:20:26;;;;;;;0.00;0.00;;;;;;;13.59;100.00;101039.44;5051271;28;20028;-45
2023/07/26 02:22:53;;;;;;;0.00;0.00;;;;;;;13.57;100.00;101039.63;5050302;28;20562;-46
2023/07/26 02:25:18;;;;;;;0.00;0.00;;;;;;;13.53;100.00;101038.38;5051103;28;20056;-47
2023/07/26 02:27:44;;;;;;;0.00;0.00;;;;;;;13.50;100.00;101037.91;5051187;28;20056;-44
2023/07/26 02:30:10;;;;;;;0.00;0.00;;;;;;;13.43;100.00;101037.00;5051125;28;20028;-48
2023/07/26 02:32:35;;;;;;;0.00;0.00;;;;;;;13.42;100.00;101041.59;5051150;28;20028;-48
2023/07/26 02:35:00;;;;;;;0.00;0.00;;;;;;;13.45;100.00;101040.38;5051006;28;20549;-50
2023/07/26 02:37:26;;;;;;;0.00;0.00;;;;;;;13.41;100.00;101039.09;5050856;28;20406;-45
2023/07/26 02:39:51;;;;;;;0.00;0.00;;;;;;;13.42;100.00;101041.59;5051395;28;20056;-45
2023/07/26 02:42:17;;;;;;;0.00;0.00;;;;;;;13.44;100.00;101036.00;5051126;28;20452;-44
2023/07/26 02:44:43;;;;;;;0.00;0.00;;;;;;;13.47;100.00;101039.13;5051141;28;20148;-46
2023/07/26 02:47:08;;;;;;;0.00;0.00;;;;;;;13.53;100.00;101043.78;5051187;28;20032;-46
2023/07/26 02:49:34;;;;;;;0.00;0.00;;;;;;;13.63;100.00;101043.41;5050940;28;20332;-46
2023/07/26 02:51:59;;;;;;;0.00;0.00;;;;;;;13.69;100.00;101039.06;5049294;28;20406;-47
2023/07/26 02:54:24;;;;;;;0.00;0.00;;;;;;;13.75;100.00;101041.84;5051080;28;20039;-46
2023/07/26 02:56:50;;;;;;;0.00;0.00;;;;;;;13.81;100.00;101049.16;5050633;28;20072;-48
2023/07/26 02:59:18;;;;;;;0.00;0.00;;;;;;;13.87;100.00;101046.69;5051072;28;20020;-46
2023/07/26 03:01:43;;;;;;;0.00;0.00;;;;;;;13.92;100.00;101042.34;5050789;28;20348;-46
2023/07/26 03:04:08;;;;;;;0.00;0.00;;;;;;;14.00;100.00;101041.38;5051350;28;20037;-45
2023/07/26 03:06:34;;;;;;;0.00;0.00;;;;;;;14.05;100.00;101038.91;5052496;28;20021;-46
2023/07/26 03:08:59;;;;;;;0.00;0.00;;;;;;;14.13;100.00;101043.31;5051754;28;20082;-45
2023/07/26 03:11:24;;;;;;;0.00;0.00;;;;;;;14.13;100.00;101038.72;5051759;28;20025;-44
2023/07/26 03:13:50;;;;;;;0.00;0.00;;;;;;;14.18;100.00;101044.38;5051780;28;20021;-45
2023/07/26 03:16:19;;;;;;;0.00;0.00;;;;;;;14.21;100.00;101041.25;5051232;28;20024;-46
2023/07/26 03:18:44;;;;;;;0.00;0.00;;;;;;;14.27;100.00;101043.19;5051254;28;20033;-44
2023/07/26 03:21:10;;;;;;;0.00;0.00;;;;;;;14.28;100.00;101047.53;5051022;28;20079;-45
2023/07/26 03:23:35;;;;;;;0.00;0.00;;;;;;;14.26;100.00;101048.78;5051195;28;20037;-46
2023/07/26 03:26:01;;;;;;;0.00;0.00;;;;;;;14.24;100.00;101051.72;5050081;28;20031;-46
2023/07/26 03:28:27;;;;;;;0.00;0.00;;;;;;;14.23;100.00;101050.03;5050770;28;20040;-46
2023/07/26 03:30:52;;;;;;;0.00;0.00;;;;;;;14.25;100.00;101053.38;5050950;28;20021;-45
2023/07/26 03:33:17;;;;;;;0.00;0.00;;;;;;;14.26;100.00;101057.72;5052246;28;20151;-46
2023/07/26 03:35:43;;;;;;;0.00;0.00;;;;;;;14.25;100.00;101058.78;5054745;28;20471;-46
2023/07/26 03:38:08;;;;;;;0.00;0.00;;;;;;;14.27;100.00;101054.00;5054490;28;20035;-48
2023/07/26 03:40:33;;;;;;;0.00;0.00;;;;;;;14.28;100.00;101050.25;5054615;28;20104;-45
2023/07/26 03:42:59;;;;;;;0.00;0.00;;;;;;;14.32;100.00;101047.97;5053060;28;20387;-47
2023/07/26 03:45:26;;;;;;;0.00;0.00;;;;;;;14.37;100.00;101048.19;5054251;28;20490;-47
2023/07/26 03:47:52;;;;;;;0.00;0.00;;;;;;;14.40;100.00;101055.09;5052980;28;20048;-48
2023/07/26 03:50:20;;;;;;;0.00;0.00;;;;;;;14.37;100.00;101041.97;5052894;28;20017;-49
2023/07/26 03:52:45;;;;;;;0.00;0.00;;;;;;;14.34;100.00;101045.91;5052469;28;20025;-49
2023/07/26 03:55:10;;;;;;;0.00;0.00;;;;;;;14.33;100.00;101040.72;5054229;28;20562;-47
2023/07/26 03:57:36;;;;;;;0.00;0.00;;;;;;;14.30;100.00;101038.38;5054588;28;20048;-49
2023/07/26 04:00:01;;;;;;;0.00;0.00;;;;;;;14.30;100.00;101038.38;5056423;28;20025;-45
2023/07/26 04:02:27;;;;;;;0.00;0.00;;;;;;;14.29;100.00;101037.53;5053850;28;20028;-46
2023/07/26 04:04:52;;;;;;;0.00;0.00;;;;;;;14.28;100.00;101044.84;5055399;28;20116;-49
2023/07/26 04:07:17;;;;;;;0.00;0.00;;;;;;;14.27;100.00;101040.47;5054986;28;20025;-43
2023/07/26 04:09:43;;;;;;;0.00;0.00;;;;;;;14.23;100.00;101031.06;5055008;28;20083;-48
2023/07/26 04:12:08;;;;;;;0.00;0.00;;;;;;;14.19;100.00;101037.06;5054719;28;20329;-43
2023/07/26 04:14:33;;;;;;;0.00;0.00;;;;;;;14.14;100.00;101040.41;5054829;28;20053;-47
2023/07/26 04:16:59;;;;;;;0.00;0.00;;;;;;;14.14;100.00;101042.25;5054562;28;20047;-44
2023/07/26 04:19:25;;;;;;;0.00;0.00;;;;;;;14.15;100.00;101052.91;5054526;28;20021;-46
2023/07/26 04:21:50;;;;;;;0.00;0.00;;;;;;;14.20;100.00;101055.84;5054532;28;20167;-45
2023/07/26 04:24:16;;;;;;;0.00;0.00;;;;;;;14.24;100.00;101054.41;5054030;28;20021;-46
2023/07/26 04:26:41;;;;;;;0.00;0.00;;;;;;;14.25;100.00;101045.25;5053677;28;20506;-45
2023/07/26 04:29:07;;;;;;;0.00;0.00;;;;;;;14.31;100.00;101045.47;5051999;28;20090;-48
2023/07/26 04:31:32;;;;;;;0.00;0.00;;;;;;;14.33;100.00;101054.25;5053322;28;20115;-44
2023/07/26 04:33:57;;;;;;;0.00;0.00;;;;;;;14.35;100.00;101049.44;5053193;28;20082;-47
2023/07/26 04:36:23;;;;;;;0.00;0.00;;;;;;;14.39;100.00;101048.00;5053377;28;20081;-47
2023/07/26 04:38:48;;;;;;;0.00;0.00;;;;;;;14.41;100.00;101040.53;5053227;28;20108;-45
2023/07/26 04:41:13;;;;;;;0.00;0.00;;;;;;;14.40;100.00;101038.84;5053096;28;20029;-44
2023/07/26 04:43:39;;;;;;;0.00;0.00;;;;;;;14.42;100.00;101037.59;5053151;28;20544;-44
2023/07/26 04:46:04;;;;;;;0.00;0.00;;;;;;;14.46;100.00;101038.88;5052261;28;20043;-45
2023/07/26 04:48:29;;;;;;;0.00;0.00;;;;;;;14.49;100.00;101033.06;5052862;28;20052;-45
2023/07/26 04:50:55;;;;;;;0.00;0.00;;;;;;;14.55;100.00;101036.84;5053082;28;20501;-44
2023/07/26 04:53:20;;;;;;;0.00;0.00;;;;;;;14.57;100.00;101037.50;5053010;28;20064;-44
2023/07/26 04:55:48;;;;;;;0.00;0.00;;;;;;;14.60;100.00;101044.38;5053042;28;20018;-46
2023/07/26 04:58:13;;;;;;;0.00;0.00;;;;;;;14.62;100.00;101042.31;5052754;28;20487;-47
2023/07/26 05:00:39;;;;;;;0.00;0.00;;;;;;;14.60;100.00;101049.78;5052866;28;20051;-45
2023/07/26 05:03:05;;;;;;;0.00;0.00;;;;;;;14.60;100.00;101050.63;5051719;28;20024;-46
2023/07/26 05:05:32;;;;;;;0.00;0.00;;;;;;;14.66;100.00;101048.97;5052727;28;20041;-46
2023/07/26 05:07:57;;;;;;;0.00;0.00;;;;;;;14.76;100.00;101059.41;5052682;28;20108;-44
2023/07/26 05:10:25;;;;;;;0.00;0.00;;;;;;;14.80;100.00;101049.84;5052623;28;20035;-47
2023/07/26 05:12:50;;;;;;;0.00;0.00;;;;;;;14.82;100.00;101047.75;5052844;28;20039;-47
2023/07/26 05:15:15;;;;;;;0.00;0.00;;;;;;;14.83;100.00;101033.19;5052632;28;20087;-47
2023/07/26 05:17:41;;;;;;;0.00;0.00;;;;;;;14.89;100.00;101043.19;5052571;28;20032;-47
2023/07/26 05:20:07;;;;;;;0.00;0.00;;;;;;;14.91;100.00;101041.94;5052217;28;20029;-47
2023/07/26 05:22:32;;;;;;;0.00;0.00;;;;;;;14.91;100.00;101043.84;5052670;28;20041;-45
2023/07/26 05:24:57;;;;;;;0.00;0.00;;;;;;;14.95;100.00;101046.94;5052440;28;20379;-47
2023/07/26 05:27:23;;;;;;;0.00;0.00;;;;;;;14.89;100.00;101045.91;5052290;28;20100;-46
2023/07/26 05:29:48;;;;;;;0.00;0.00;;;;;;;14.91;100.00;101051.97;5052320;28;20387;-45
2023/07/26 05:32:13;;;;;;;0.00;0.00;;;;;;;14.87;100.00;101045.28;5052451;28;20028;-48
2023/07/26 05:34:39;;;;;;;0.00;0.00;;;;;;;14.87;100.00;101039.84;5052328;28;20379;-47
2023/07/26 05:37:04;;;;;;;0.00;0.00;;;;;;;14.88;100.00;101044.25;5052875;28;20029;-45
2023/07/26 05:39:30;;;;;;;0.00;0.00;;;;;;;14.88;100.00;101049.66;5052624;28;20083;-46
2023/07/26 05:41:55;;;;;;;0.00;0.00;;;;;;;14.89;100.00;101054.03;5054420;28;20459;-46
2023/07/26 05:44:21;;;;;;;0.00;0.00;;;;;;;14.95;100.00;101057.78;5053983;28;20064;-46
2023/07/26 05:46:46;;;;;;;0.00;0.00;;;;;;;15.00;100.00;101061.56;5053709;28;20029;-47
2023/07/26 05:49:11;;;;;;;0.00;0.00;;;;;;;15.05;100.00;101061.78;5052709;28;20025;-45
2023/07/26 05:51:37;;;;;;;0.00;0.00;;;;;;;15.12;100.00;101059.09;5052484;28;20103;-42
2023/07/26 05:54:02;;;;;;;0.00;0.00;;;;;;;15.23;100.00;101069.31;5052198;28;20048;-45
2023/07/26 05:56:27;;;;;;;0.00;0.00;;;;;;;15.40;100.00;101079.75;5051798;28;20029;-44
2023/07/26 05:58:53;;;;;;;0.00;0.00;;;;;;;15.57;100.00;101087.25;5050419;28;20057;-47
2023/07/26 06:01:18;;;;;;;0.00;0.00;;;;;;;15.72;100.00;101091.69;5051750;28;20032;-45
2023/07/26 06:03:44;;;;;;;0.00;0.00;;;;;;;15.88;100.00;101088.53;5051735;28;20025;-47
2023/07/26 06:06:10;;;;;;;0.00;0.00;;;;;;;16.02;100.00;101092.88;5050193;28;20506;-50
2023/07/26 06:08:35;;;;;;;0.00;0.00;;;;;;;16.25;100.00;101088.88;5051605;28;20123;-45
2023/07/26 06:11:00;;;;;;;0.00;0.00;;;;;;;16.51;100.00;101096.09;5051642;28;20553;-46
2023/07/26 06:13:26;;;;;;;0.00;0.00;;;;;;;16.68;100.00;101093.72;5051615;28;20036;-44
2023/07/26 06:15:51;;;;;;;0.00;0.00;;;;;;;16.98;100.00;101094.03;5051526;28;20078;-48
2023/07/26 06:18:17;;;;;;;0.00;0.00;;;;;;;17.24;100.00;101090.28;5051333;28;20035;-45
2023/07/26 06:20:42;;;;;;;0.00;0.00;;;;;;;17.55;100.00;101086.69;5051147;28;20041;-43
2023/07/26 06:23:08;;;;;;;0.00;0.00;;;;;;;17.89;100.00;101091.88;5051181;28;20029;-47
2023/07/26 06:25:33;;;;;;;0.00;0.00;;;;;;;18.37;100.00;101093.88;5051234;28;20033;-46
2023/07/26 06:27:59;;;;;;;0.00;0.00;;;;;;;19.03;100.00;101090.31;5051560;28;20021;-46
2023/07/26 06:30:24;;;;;;;0.00;0.00;;;;;;;19.34;100.00;101101.22;5051558;28;20029;-46
2023/07/26 06:32:50;;;;;;;0.00;0.00;;;;;;;19.09;100.00;101102.22;5051668;28;20060;-47
2023/07/26 06:35:15;;;;;;;0.00;0.00;;;;;;;18.75;100.00;101095.56;5051161;28;20433;-45
2023/07/26 06:37:41;;;;;;;0.00;0.00;;;;;;;18.67;100.00;101104.84;5051269;28;20048;-48
2023/07/26 06:40:06;;;;;;;0.00;0.00;;;;;;;18.57;100.00;101099.09;5051225;28;20044;-47
2023/07/26 06:42:32;;;;;;;0.00;0.00;;;;;;;18.83;100.00;101104.25;5050904;28;20025;-47
2023/07/26 06:44:58;;;;;;;0.00;0.00;;;;;;;19.40;100.00;101106.53;5051142;28;20059;-49
2023/07/26 06:47:23;;;;;;;0.00;0.00;;;;;;;20.20;100.00;101101.66;5049680;28;20060;-48
2023/07/26 06:49:49;;;;;;;0.00;0.00;;;;;;;21.00;100.00;101111.78;5048726;28;20431;-45
2023/07/26 06:52:16;;;;;;;0.00;0.00;;;;;;;21.31;100.00;101104.13;5050767;28;20041;-46
2023/07/26 06:54:41;;;;;;;0.00;0.00;;;;;;;21.26;100.00;101110.34;5050686;28;20131;-47
2023/07/26 06:57:07;;;;;;;0.00;0.00;;;;;;;20.51;100.00;101109.44;5050398;28;20127;-47
2023/07/26 06:59:33;;;;;;;0.00;0.00;;;;;;;20.75;100.00;101104.75;5050532;28;20159;-48
2023/07/26 07:01:58;;;;;;;0.00;0.00;;;;;;;21.55;100.00;101113.88;5050352;28;20116;-47
2023/07/26 07:04:23;;;;;;;0.00;0.00;;;;;;;22.27;100.00;101112.25;5050383;28;20032;-47
2023/07/26 07:06:49;;;;;;;0.00;0.00;;;;;;;22.99;98.19;101111.25;5050221;28;20471;-45
2023/07/26 07:09:15;;;;;;;0.00;0.00;;;;;;;23.70;92.85;101111.06;5050120;28;20112;-47
2023/07/26 07:11:40;;;;;;;0.00;0.00;;;;;;;23.09;92.11;101116.00;5050373;28;20425;-44
2023/07/26 07:14:06;;;;;;;0.00;0.00;;;;;;;22.82;92.16;101122.28;5050517;28;20021;-48
2023/07/26 07:16:32;;;;;;;0.00;0.00;;;;;;;22.63;92.75;101118.22;5050330;28;20519;-46
2023/07/26 07:18:57;;;;;;;0.00;0.00;;;;;;;23.20;93.13;101115.03;5050299;28;20044;-45
2023/07/26 07:21:22;;;;;;;0.00;0.00;;;;;;;23.49;88.19;101120.25;5050218;28;20163;-47
2023/07/26 07:23:48;;;;;;;0.00;0.00;;;;;;;23.85;86.12;101137.84;5050303;28;20032;-46
2023/07/26 07:26:13;;;;;;;0.00;0.00;;;;;;;24.12;84.60;101134.19;5050452;28;20025;-48
2023/07/26 07:28:39;;;;;;;0.00;0.00;;;;;;;23.56;83.62;101140.06;5050320;28;20151;-46
2023/07/26 07:31:04;;;;;;;0.00;0.00;;;;;;;23.09;84.72;101132.47;5050176;28;20418;-45
2023/07/26 07:33:30;;;;;;;0.00;0.00;;;;;;;23.59;86.33;101140.41;5050368;28;20025;-49
2023/07/26 07:35:55;;;;;;;0.00;0.00;;;;;;;24.21;87.32;101143.63;5050014;28;20112;-47
2023/07/26 07:38:21;;;;;;;0.00;0.00;;;;;;;24.91;85.28;101147.00;5050401;28;20088;-47
2023/07/26 07:40:47;;;;;;;0.00;0.00;;;;;;;25.08;82.74;101147.59;5049989;28;20033;-44
2023/07/26 07:43:12;;;;;;;0.00;0.00;;;;;;;24.65;83.54;101149.66;5050504;28;20094;-45
2023/07/26 07:45:42;;;;;;;0.00;0.00;;;;;;;24.37;85.81;101144.53;5050281;28;20029;-48
2023/07/26 07:48:07;;;;;;;0.00;0.00;;;;;;;24.51;84.31;101153.97;5050189;28;20104;-49
2023/07/26 07:50:33;;;;;;;0.00;0.00;;;;;;;24.68;82.63;101160.13;5049956;28;20136;-47
2023/07/26 07:52:58;;;;;;;0.00;0.00;;;;;;;25.08;83.79;101149.53;5046595;28;20030;-49
2023/07/26 07:55:23;;;;;;;0.00;0.00;;;;;;;24.82;82.92;101154.13;5029884;28;20033;-48
2023/07/26 07:57:49;;;;;;;0.00;0.00;;;;;;;24.21;86.43;101158.19;5030079;28;20111;-47
2023/07/26 08:00:15;;;;;;;0.00;0.00;;;;;;;23.40;88.08;101150.91;5030254;28;20029;-50
2023/07/26 08:02:40;;;;;;;0.00;0.00;;;;;;;23.50;90.95;101154.84;5030100;28;20643;-43
2023/07/26 08:05:06;;;;;;;0.00;0.00;;;;;;;24.25;88.60;101148.31;5030480;28;20083;-47
2023/07/26 08:07:31;;;;;;;0.00;0.00;;;;;;;24.99;84.80;101154.72;5030149;28;20036;-46
2023/07/26 08:09:57;;;;;;;0.00;0.00;;;;;;;25.80;81.52;101156.81;5030220;28;20538;-45
2023/07/26 08:12:22;;;;;;;0.00;0.00;;;;;;;25.62;78.80;101157.34;5030441;28;20430;-46
2023/07/26 08:14:49;;;;;;;0.00;0.00;;;;;;;25.35;81.08;101157.59;5030261;28;20041;-46
2023/07/26 08:17:15;;;;;;;0.00;0.00;;;;;;;25.93;80.11;101157.34;5030271;28;20367;-46
2023/07/26 08:19:40;;;;;;;0.00;0.00;;;;;;;25.79;78.76;101168.91;5030341;28;20037;-47
2023/07/26 08:22:05;;;;;;;0.00;0.00;;;;;;;25.74;77.88;101171.66;5033488;28;20164;-50
2023/07/26 08:24:30;;;;;;;0.00;0.00;;;;;;;26.23;74.05;101168.34;5033637;28;20033;-47
2023/07/26 08:26:56;;;;;;;0.00;0.00;;;;;;;26.68;72.18;101169.34;5032136;28;20032;-44
2023/07/26 08:29:21;;;;;;;0.00;0.00;;;;;;;26.80;71.45;101160.72;5033794;28;20491;-47
2023/07/26 08:31:46;;;;;;;0.00;0.00;;;;;;;27.22;72.89;101164.94;5033623;28;20017;-45
2023/07/26 08:34:12;;;;;;;0.00;0.00;;;;;;;27.57;67.89;101168.59;5035452;28;20032;-47
2023/07/26 08:36:37;;;;;;;0.00;0.00;;;;;;;26.13;70.10;101175.81;5034344;28;20032;-43
2023/07/26 08:39:02;;;;;;;0.00;0.00;;;;;;;24.74;77.03;101174.72;5034363;28;20106;-46
2023/07/26 08:41:29;;;;;;;0.00;0.00;;;;;;;24.83;76.39;101172.28;5033805;28;20021;-44
2023/07/26 08:43:58;;;;;;;0.00;0.00;;;;;;;24.03;78.78;101164.94;5031867;28;20075;-45
2023/07/26 08:46:24;;;;;;;0.00;0.00;;;;;;;22.97;81.27;101166.41;5033362;28;20480;-46
2023/07/26 08:48:50;;;;;;;0.00;0.00;;;;;;;22.23;84.47;101171.44;5031658;28;20021;-47
2023/07/26 08:51:16;;;;;;;0.00;0.00;;;;;;;22.35;90.37;101166.66;5048818;28;20033;-46
2023/07/26 08:53:42;;;;;;;0.00;0.00;;;;;;;23.57;85.37;101171.97;5033044;28;20383;-47
2023/07/26 08:56:08;;;;;;;0.00;0.00;;;;;;;24.35;81.27;101172.28;5048323;28;20041;-49
2023/07/26 08:58:33;;;;;;;0.00;0.00;;;;;;;25.21;79.42;101173.81;5032660;28;20045;-47
2023/07/26 09:00:59;;;;;;;0.00;0.00;;;;;;;25.53;76.33;101176.34;5032468;28;20033;-43
2023/07/26 09:03:24;;;;;;;0.00;0.00;;;;;;;24.80;75.24;101178.31;5047824;28;20382;-46
2023/07/26 09:06:05;;;;;;;0.00;0.00;;;;;;;24.06;80.52;101180.06;5032761;28;20423;-46
2023/07/26 09:08:30;;;;;;;0.00;0.00;;;;;;;24.03;80.86;101180.59;5032915;28;20369;-47
2023/07/26 09:10:56;;;;;;;0.00;0.00;;;;;;;24.14;81.69;101176.00;5031456;28;20117;-46
2023/07/26 09:13:22;;;;;;;0.00;0.00;;;;;;;24.82;80.08;101165.13;5032839;28;20032;-43
2023/07/26 09:15:47;;;;;;;0.00;0.00;;;;;;;25.35;75.89;101174.09;5032854;28;20475;-46
2023/07/26 09:18:14;;;;;;;0.00;0.00;;;;;;;25.68;75.51;101172.78;5032507;28;20033;-46
2023/07/26 09:20:40;;;;;;;0.00;0.00;;;;;;;25.98;74.02;101171.97;5032756;28;20083;-44
2023/07/26 09:23:05;;;;;;;0.00;0.00;;;;;;;25.78;74.96;101167.28;5033243;28;20017;-45
2023/07/26 09:25:31;;;;;;;0.00;0.00;;;;;;;25.22;75.66;101174.63;5032816;28;20033;-45
2023/07/26 09:27:58;;;;;;;0.00;0.00;;;;;;;24.88;78.59;101181.41;5032187;28;20033;-48
2023/07/26 09:30:24;;;;;;;;;;;;;;;24.95;77.87;101175.63;5032691;28;20033;-44
2023/07/26 09:32:49;;;;;;;0.00;0.00;;;;;;;25.41;77.19;101178.56;5031980;28;19919;-49
2023/07/26 09:35:15;;;;;;;0.00;0.00;;;;;;;25.77;74.67;101165.59;5032498;28;20037;-47
2023/07/26 09:37:40;;;;;;;0.00;0.00;;;;;;;25.70;72.24;101178.84;5031973;28;20036;-47
2023/07/26 09:40:06;;;;;;;0.00;0.00;;;;;;;25.89;72.22;101178.34;5032165;28;20033;-47
2023/07/26 09:42:45;;;;;;;0.00;0.00;;;;;;;25.47;74.03;101180.19;5031774;28;20105;-48
2023/07/26 09:45:17;;;;;;;0.00;0.00;;;;;;;25.11;76.48;101179.25;5030789;28;20072;-45
2023/07/26 09:47:43;;;;;;;0.00;0.00;;;;;;;25.59;74.85;101186.28;5046954;28;20442;-47
2023/07/26 09:50:24;;;;;;;0.00;0.00;;;;;;;26.25;72.40;101173.56;5031688;28;20104;-46
2023/07/26 09:52:54;;;;;;;0.00;0.00;;;;;;;26.51;74.10;101182.63;5032354;28;20021;-47
2023/07/26 09:55:25;;;;;;;0.10;0.00;;;;;;;26.28;73.51;101182.13;5031747;28;20029;-49
2023/07/26 09:57:55;;;;;;;0.00;0.00;;;;;;;26.60;71.48;101182.91;5031410;28;20046;-45
2023/07/26 10:00:27;;;;;;;0.00;0.00;;;;;;;26.74;70.60;101178.44;5031616;28;20052;-45
2023/07/26 10:03:03;;;;;;;0.00;0.00;;;;;;;27.26;69.51;101185.38;5030351;28;20373;-46
2023/07/26 10:05:40;;;;;;;0.00;0.00;;;;;;;27.48;69.14;101193.25;5031532;28;20096;-48
2023/07/26 10:08:05;;;;;;;0.00;0.00;;;;;;;27.31;67.77;101182.59;5030080;28;20041;-48
2023/07/26 10:10:31;;;;;;;0.00;0.00;;;;;;;27.07;68.34;101182.44;5031535;28;20364;-47
2023/07/26 10:12:58;;;;;;;0.00;0.00;;;;;;;26.66;69.68;101181.78;5030463;28;20028;-47
2023/07/26 10:15:25;;;;;;;0.00;0.00;;;;;;;26.41;71.10;101189.00;5030341;28;20033;-48
2023/07/26 10:17:52;;;;;;;0.00;0.00;;;;;;;26.36;71.28;101183.50;5031710;28;20468;-45
2023/07/26 10:20:17;;;;;;;;;;;;;;;26.69;71.11;101189.50;5032039;28;20022;-47
2023/07/26 10:22:43;;;;;;;0.00;0.00;;;;;;;26.82;70.21;101194.41;5031320;28;19916;-46
2023/07/26 10:25:09;;;;;;;0.55;0.00;;;;;;;27.15;68.62;101200.34;5031328;28;20424;-45
2023/07/26 10:27:35;;;;;;;0.00;0.00;;;;;;;27.18;66.32;101199.81;5031216;28;20036;-43
2023/07/26 10:30:02;;;;;;;0.00;0.00;;;;;;;27.21;65.87;101201.19;5029567;28;20111;-46
2023/07/26 10:32:28;;;;;;;0.00;0.00;;;;;;;26.73;67.84;101198.06;5030937;28;20116;-46
2023/07/26 10:34:55;;;;;;;0.00;0.00;;;;;;;26.78;67.83;101207.16;5031248;28;20108;-51
2023/07/26 10:37:20;;;;;;;;;;;;;;;26.40;66.77;101198.38;5031615;28;20060;-46
2023/07/26 10:39:48;;;;;;;0.00;0.00;;;;;;;26.15;70.42;101206.72;5031153;28;19909;-47
2023/07/26 10:42:24;;;;;;;0.00;0.00;;;;;;;26.68;69.87;101194.19;5030978;28;20033;-48
2023/07/26 10:44:50;;;;;;;0.00;0.00;;;;;;;26.61;72.15;101207.47;5031100;28;20021;-46
2023/07/26 10:47:15;;;;;;;0.00;0.00;;;;;;;26.60;70.07;101200.31;5029800;28;20044;-46
2023/07/26 10:49:45;;;;;;;0.00;0.00;;;;;;;26.46;68.53;101205.56;5030685;28;20448;-48
2023/07/26 10:52:11;;;;;;;0.00;0.00;;;;;;;26.53;69.87;101204.47;5031543;28;20387;-47
2023/07/26 10:54:43;;;;;;;0.00;0.00;;;;;;;26.97;67.12;101199.06;5030951;28;20017;-44
2023/07/26 10:57:31;;;;;;;0.00;0.00;;;;;;;26.90;66.37;101204.88;5030681;28;20069;-47
2023/07/26 10:59:57;;;;;;;0.00;0.00;;;;;;;26.97;68.25;101209.28;5031031;28;20156;-46
2023/07/26 11:03:10;;;;;;;0.00;0.00;;;;;;;27.05;66.10;101205.94;5030752;28;20491;-44
2023/07/26 11:05:38;;;;;;;0.00;0.00;;;;;;;26.77;70.79;101205.47;5027666;28;20087;-44
2023/07/26 11:08:07;;;;;;;0.00;0.00;;;;;;;27.06;67.87;101207.56;5030319;28;20033;-45
2023/07/26 11:10:37;;;;;;;0.00;0.00;;;;;;;26.81;68.67;101212.09;5045901;28;20030;-47
2023/07/26 11:13:15;;;;;;;0.00;0.00;;;;;;;26.68;69.43;101212.69;5030860;28;20029;-50
2023/07/26 11:15:47;;;;;;;0.00;0.00;;;;;;;26.52;68.79;101214.69;5031090;28;20023;-47
2023/07/26 11:18:14;;;;;;;0.00;0.00;;;;;;;26.86;69.68;101214.84;5030543;28;20053;-46